Cold Bay Airport
PACD : now visible

Airfield :











YOU CAN JOIN US ON...

 
LOGIN :

Register | Disclaimer

   EN    FR    IT 

 









Legend :    VFR   Marginal VFR   IFR   Intensive IFR   Very Intensive IFR
Visi :
Ceiling :
>= 8 km
>= 3000ft
5 to 8 km
1000 to 3000 ft
1500m to 5 km
500 to 1000 ft
800 to 1500m
200 to 500 ft
< 800m
< 200 ft
Symbols :   Thunderstorms  Fog  Heavy snow  Heavy precipitations  Wind > 20 kt






- Airport Elevation : 96 ft
- IATA code : CDB


PACD - Cold Bay

CURRENT METAR :
  • 222053Z 32020G27KT 9SM -RA BKN007 BKN011 OVC021 09/08 A2956 RMK AO2 PK WND 32029/2020 RAB30 SLP009 P0000 60000 T00940083 51014

EXPIRED METARs :
  • 222024Z 32020G29KT 8SM BKN009 OVC015 09/08 A2955 RMK AO2 PK WND 32029/2020 CIG 006V013 T00940078
  • 222004Z 33018G28KT 10SM BKN012 BKN018 OVC023 09/08 A2955 RMK AO2 PK WND 32028/1956 T00940078
  • 221853Z 33021G30KT 10SM -RA BKN010 OVC014 09/08 A2953 RMK AO2 PK WND 33031/1806 SLP001 P0000 T00890078
  • 221818Z 32022G30KT 9SM -RA OVC011 09/08 A2952 RMK AO2 PK WND 33031/1806 P0000 T00890078

TAF PACD
Valid from the 22 at 18:00 until the 23 at 18:00 UTC


221722Z 2218/2318 32020G30KT 3SM -RA BR OVC008
TEMPO 2218/2222 6SM SCT008
FM230300 32020G30KT P6SM SCT015 OVC025
FM230900 31017KT P6SM -SHRA SCT025 OVC050
PAZA FIR / North America



MET'MAP, your aeronautical weather chart ! - Copyright ORBIFLY December 2007 - Disclaimer

ORBIFLY MET'MAP TEAM :

Programming & Development : Alexandra Zaïnal
Concept & original design : Baudouin d'Aumeries
Assistance for programming : Marc-Olivier Méhu
Technical & hardware support : Manuel Goepfert

Contact : metmap@orbifly.com




SOURCES & CREDITS :

   NOAA       Earth
Advisory